createdAt,value
2017-09-05T00:00:53.835Z,0.00
2017-09-05T00:01:53.822Z,0.00
2017-09-05T00:02:53.816Z,0.00
2017-09-05T00:03:53.799Z,0.00
2017-09-05T00:04:53.790Z,0.00
2017-09-05T00:05:53.771Z,0.00
2017-09-05T00:06:53.762Z,0.00
2017-09-05T00:07:53.750Z,0.00
2017-09-05T00:08:53.736Z,0.00
2017-09-05T00:09:53.724Z,0.00
2017-09-05T00:10:53.708Z,0.00
2017-09-05T00:11:53.698Z,0.00
2017-09-05T00:12:53.688Z,0.00
2017-09-05T00:13:53.673Z,0.00
2017-09-05T00:14:53.663Z,0.00
2017-09-05T00:15:53.644Z,0.00
2017-09-05T00:16:53.638Z,0.00
2017-09-05T00:17:53.624Z,0.00
2017-09-05T00:18:53.612Z,0.00
2017-09-05T00:19:53.598Z,0.00
2017-09-05T00:20:53.588Z,0.00
2017-09-05T00:21:53.572Z,0.00
2017-09-05T00:22:53.563Z,0.00
2017-09-05T00:23:53.550Z,0.00
2017-09-05T00:24:53.537Z,0.00
2017-09-05T00:25:53.521Z,0.00
2017-09-05T00:26:53.512Z,0.00
2017-09-05T00:27:53.496Z,0.00
2017-09-05T00:28:53.486Z,0.00
2017-09-05T00:29:53.476Z,0.00
2017-09-05T00:30:53.460Z,0.00
2017-09-05T00:31:53.451Z,0.00
2017-09-05T00:32:53.435Z,0.00
2017-09-05T00:33:53.422Z,0.00
2017-09-05T00:34:53.410Z,0.00
2017-09-05T00:35:53.399Z,0.00
2017-09-05T00:36:53.389Z,0.00
2017-09-05T00:37:53.373Z,0.00
2017-09-05T00:38:53.363Z,0.00
2017-09-05T00:39:53.357Z,0.00
2017-09-05T00:40:53.342Z,0.00
2017-09-05T00:41:53.325Z,0.00
2017-09-05T00:42:53.312Z,0.00
2017-09-05T00:43:53.299Z,0.00
2017-09-05T00:44:53.286Z,0.00
2017-09-05T00:45:53.279Z,0.00
2017-09-05T00:46:53.263Z,0.00
2017-09-05T00:47:53.261Z,0.00
2017-09-05T00:48:53.238Z,0.00
2017-09-05T00:49:53.219Z,0.00
2017-09-05T00:50:53.213Z,0.00
2017-09-05T00:51:53.201Z,0.00
2017-09-05T00:52:53.187Z,0.00
2017-09-05T00:53:53.174Z,0.00
2017-09-05T00:54:53.161Z,0.00
2017-09-05T00:55:53.145Z,0.00
2017-09-05T00:56:53.135Z,0.00
2017-09-05T00:57:53.123Z,0.00
2017-09-05T00:58:53.114Z,0.00
2017-09-05T00:59:53.101Z,0.00
2017-09-05T01:00:53.085Z,0.00
2017-09-05T01:01:53.069Z,0.00
2017-09-05T01:02:53.062Z,0.00
2017-09-05T01:03:53.049Z,0.00
2017-09-05T01:04:53.037Z,0.00
2017-09-05T01:05:53.024Z,0.00
2017-09-05T01:06:53.011Z,0.00
2017-09-05T01:07:52.998Z,0.00
2017-09-05T01:08:52.988Z,0.00
2017-09-05T01:09:52.977Z,0.00
2017-09-05T01:10:52.963Z,0.00
2017-09-05T01:11:52.950Z,0.00
2017-09-05T01:12:52.934Z,0.00
2017-09-05T01:13:52.921Z,0.00
2017-09-05T01:14:52.909Z,0.00
2017-09-05T01:15:52.898Z,0.00
2017-09-05T01:16:52.889Z,0.00
2017-09-05T01:17:52.873Z,0.00
2017-09-05T01:18:52.864Z,0.00
2017-09-05T01:19:52.851Z,0.00
2017-09-05T01:20:52.838Z,0.00
2017-09-05T01:21:52.825Z,0.00
2017-09-05T01:22:52.812Z,0.00
2017-09-05T01:23:52.799Z,0.00
2017-09-05T01:24:52.789Z,0.00
2017-09-05T01:25:52.773Z,0.00
2017-09-05T01:26:52.758Z,0.00
2017-09-05T01:27:52.751Z,0.00
2017-09-05T01:28:52.745Z,0.00
2017-09-05T01:29:52.732Z,0.00
2017-09-05T01:30:52.719Z,0.00
2017-09-05T01:31:52.697Z,0.00
2017-09-05T01:32:52.684Z,0.00
2017-09-05T01:33:52.671Z,0.00
2017-09-05T01:34:52.662Z,0.00
2017-09-05T01:35:52.649Z,0.00
2017-09-05T01:36:52.644Z,0.00
2017-09-05T01:37:52.623Z,0.00
2017-09-05T01:38:52.613Z,0.00
2017-09-05T01:39:52.602Z,0.00
2017-09-05T01:40:52.589Z,0.00
2017-09-05T01:41:52.580Z,0.00
2017-09-05T01:42:52.564Z,0.00
2017-09-05T01:43:52.552Z,0.00
2017-09-05T01:44:52.539Z,0.00
2017-09-05T01:45:52.525Z,0.00
2017-09-05T01:46:52.515Z,0.00
2017-09-05T01:47:52.504Z,0.00
2017-09-05T01:48:52.490Z,0.00
2017-09-05T01:49:52.471Z,0.00
2017-09-05T01:50:52.464Z,0.00
2017-09-05T01:51:52.452Z,0.00
2017-09-05T01:52:52.439Z,0.00
2017-09-05T01:53:52.426Z,0.00
2017-09-05T01:54:52.417Z,0.00
2017-09-05T01:55:52.401Z,0.00
2017-09-05T01:56:52.390Z,0.00
2017-09-05T01:57:52.381Z,0.00
2017-09-05T01:58:52.369Z,0.00
2017-09-05T01:59:52.353Z,0.00
2017-09-05T02:00:52.340Z,0.00
2017-09-05T02:01:52.327Z,0.00
2017-09-05T02:02:52.315Z,0.00
2017-09-05T02:03:52.302Z,0.00
2017-09-05T02:04:52.293Z,0.00
2017-09-05T02:05:52.273Z,0.00
2017-09-05T02:06:52.266Z,0.00
2017-09-05T02:07:52.251Z,0.00
2017-09-05T02:08:52.241Z,0.00
2017-09-05T02:09:52.231Z,0.00
2017-09-05T02:10:52.215Z,0.00
2017-09-05T02:11:52.196Z,0.00
2017-09-05T02:12:52.193Z,0.00
2017-09-05T02:13:52.181Z,0.00
2017-09-05T02:14:52.168Z,0.00
2017-09-05T02:15:52.155Z,0.00
2017-09-05T02:16:52.142Z,0.00
2017-09-05T02:17:52.129Z,0.00
2017-09-05T02:18:52.119Z,0.00
2017-09-05T02:19:52.104Z,0.00
2017-09-05T02:20:52.090Z,0.00
2017-09-05T02:21:52.076Z,0.00
2017-09-05T02:22:52.065Z,0.00
2017-09-05T02:23:52.053Z,0.00
2017-09-05T02:24:52.045Z,0.00
2017-09-05T02:25:52.027Z,0.00
2017-09-05T02:26:52.015Z,0.00
2017-09-05T02:27:52.008Z,0.00
2017-09-05T02:28:51.990Z,0.00
2017-09-05T02:29:51.983Z,0.00
2017-09-05T02:30:51.967Z,0.00
2017-09-05T02:31:51.954Z,0.00
2017-09-05T02:32:51.942Z,0.00
2017-09-05T02:33:51.928Z,0.00
2017-09-05T02:34:51.919Z,0.00
2017-09-05T02:35:51.906Z,0.00
2017-09-05T02:36:51.894Z,0.00
2017-09-05T02:37:51.877Z,0.00
2017-09-05T02:38:51.868Z,0.00
2017-09-05T02:39:51.855Z,0.00
2017-09-05T02:40:51.843Z,0.00
2017-09-05T02:41:51.829Z,0.00
2017-09-05T02:42:51.816Z,0.00
2017-09-05T02:43:51.831Z,0.00
2017-09-05T02:44:51.791Z,0.00
2017-09-05T02:45:51.779Z,0.00
2017-09-05T02:46:51.769Z,0.00
2017-09-05T02:47:51.757Z,0.00
2017-09-05T02:48:51.744Z,0.00
2017-09-05T02:49:51.731Z,0.00
2017-09-05T02:50:51.733Z,0.00
2017-09-05T02:51:51.706Z,0.00
2017-09-05T02:52:51.689Z,0.00
2017-09-05T02:53:51.680Z,0.00
2017-09-05T02:54:51.670Z,0.00
2017-09-05T02:55:51.658Z,0.00
2017-09-05T02:56:51.645Z,0.00
2017-09-05T02:57:51.626Z,0.00
2017-09-05T02:58:51.613Z,0.00
2017-09-05T02:59:51.607Z,0.00
2017-09-05T03:00:51.593Z,0.00
2017-09-05T03:01:51.579Z,0.00
2017-09-05T03:02:51.569Z,0.00
2017-09-05T03:03:51.557Z,0.00
2017-09-05T03:04:51.544Z,0.00
2017-09-05T03:05:51.531Z,0.00
2017-09-05T03:06:51.518Z,0.00
2017-09-05T03:07:51.509Z,0.00
2017-09-05T03:08:51.493Z,0.00
2017-09-05T03:09:51.482Z,0.00
2017-09-05T03:10:51.467Z,0.00
2017-09-05T03:11:51.455Z,0.00
2017-09-05T03:12:51.450Z,0.00
2017-09-05T03:13:51.434Z,0.00
2017-09-05T03:14:51.416Z,0.00
2017-09-05T03:15:51.402Z,0.00
2017-09-05T03:16:51.398Z,0.00
2017-09-05T03:17:51.382Z,0.00
2017-09-05T03:18:51.375Z,0.00
2017-09-05T03:19:51.356Z,0.00
2017-09-05T03:20:51.341Z,0.00
2017-09-05T03:21:51.330Z,0.00
2017-09-05T03:22:51.318Z,0.00
2017-09-05T03:23:51.308Z,0.00
2017-09-05T03:24:51.295Z,0.00
2017-09-05T03:25:51.284Z,0.00
2017-09-05T03:26:51.272Z,0.00
2017-09-05T03:27:51.251Z,0.00
2017-09-05T03:28:51.242Z,0.00
2017-09-05T03:29:51.231Z,0.00
2017-09-05T03:30:51.219Z,0.00
2017-09-05T03:31:51.209Z,0.00
2017-09-05T03:32:51.193Z,0.00
2017-09-05T03:33:51.179Z,0.00
2017-09-05T03:34:51.170Z,0.00
2017-09-05T03:35:51.157Z,0.00
2017-09-05T03:36:51.144Z,0.00
2017-09-05T03:37:51.131Z,0.00
2017-09-05T03:38:51.119Z,0.00
2017-09-05T03:39:51.106Z,0.00
2017-09-05T03:40:51.098Z,0.00
2017-09-05T03:41:51.077Z,0.00
2017-09-05T03:42:51.070Z,0.00
2017-09-05T03:43:51.057Z,0.00
2017-09-05T03:44:51.042Z,0.00
2017-09-05T03:45:51.029Z,0.00
2017-09-05T03:46:51.016Z,0.00
2017-09-05T03:47:51.003Z,0.00
2017-09-05T03:48:50.990Z,0.00
2017-09-05T03:49:50.983Z,0.00
2017-09-05T03:50:50.967Z,0.00
2017-09-05T03:51:50.954Z,0.00
2017-09-05T03:52:50.941Z,0.00
2017-09-05T03:53:50.929Z,0.00
2017-09-05T03:54:50.919Z,0.00
2017-09-05T03:55:50.910Z,0.00
2017-09-05T03:56:50.893Z,0.00
2017-09-05T03:57:50.881Z,0.00
2017-09-05T03:58:50.867Z,0.00
2017-09-05T03:59:50.862Z,0.00
2017-09-05T04:00:50.843Z,0.00
2017-09-05T04:01:50.829Z,0.00
2017-09-05T04:02:50.819Z,0.00
2017-09-05T04:03:50.803Z,0.00
2017-09-05T04:04:50.791Z,0.00
2017-09-05T04:05:50.782Z,0.00
2017-09-05T04:06:50.765Z,0.00
2017-09-05T04:07:50.752Z,0.00
2017-09-05T04:08:50.743Z,0.00
2017-09-05T04:09:50.734Z,0.00
2017-09-05T04:10:50.717Z,0.00
2017-09-05T04:11:50.705Z,0.00
2017-09-05T04:12:50.689Z,0.00
2017-09-05T04:13:50.679Z,0.00
2017-09-05T04:14:50.666Z,0.00
2017-09-05T04:15:50.656Z,0.00
2017-09-05T04:16:50.640Z,0.00
2017-09-05T04:17:50.625Z,0.00
2017-09-05T04:18:50.612Z,0.00
2017-09-05T04:19:50.602Z,0.00
2017-09-05T04:20:50.593Z,0.00
2017-09-05T04:21:50.578Z,0.00
2017-09-05T04:22:50.567Z,0.00
2017-09-05T04:23:50.548Z,4.00
2017-09-05T04:24:50.538Z,4.00
2017-09-05T04:25:50.526Z,0.00
2017-09-05T04:26:50.515Z,4.00
2017-09-05T04:27:50.503Z,4.00
2017-09-05T04:28:50.490Z,4.00
2017-09-05T04:29:50.473Z,4.00
2017-09-05T04:30:50.464Z,8.00
2017-09-05T04:31:50.451Z,8.00
2017-09-05T04:32:50.442Z,8.00
2017-09-05T04:33:50.422Z,8.00
2017-09-05T04:34:50.417Z,8.00
2017-09-05T04:35:50.403Z,12.00
2017-09-05T04:36:50.390Z,16.00
2017-09-05T04:37:50.380Z,20.00
2017-09-05T04:38:50.364Z,24.00
2017-09-05T04:39:50.355Z,28.00
2017-09-05T04:40:50.337Z,32.00
2017-09-05T04:41:50.322Z,36.00
2017-09-05T04:42:50.313Z,44.00
2017-09-05T04:43:50.297Z,48.00
2017-09-05T04:44:50.287Z,52.00
2017-09-05T04:45:50.279Z,60.00
2017-09-05T04:46:50.265Z,68.00
2017-09-05T04:47:50.251Z,80.00
2017-09-05T04:48:50.236Z,88.00
2017-09-05T04:49:50.226Z,100.00
2017-09-05T04:50:50.208Z,112.00
2017-09-05T04:51:50.200Z,124.00
2017-09-05T04:52:50.187Z,132.00
2017-09-05T04:53:50.170Z,144.00
2017-09-05T04:54:50.164Z,156.00
2017-09-05T04:55:50.148Z,172.00
2017-09-05T04:56:50.139Z,188.00
2017-09-05T04:57:50.123Z,196.00
2017-09-05T04:58:50.113Z,208.00
2017-09-05T04:59:50.100Z,220.00
2017-09-05T05:00:50.088Z,232.00
2017-09-05T05:01:50.078Z,252.00
2017-09-05T05:02:50.062Z,272.00
2017-09-05T05:03:50.049Z,292.00
2017-09-05T05:04:50.036Z,316.00
2017-09-05T05:05:50.018Z,336.00
2017-09-05T05:06:50.011Z,360.00
2017-09-05T05:07:49.998Z,380.00
2017-09-05T05:08:49.988Z,400.00
2017-09-05T05:09:49.972Z,412.00
2017-09-05T05:10:49.962Z,420.00
2017-09-05T05:11:49.953Z,444.00
2017-09-05T05:12:49.940Z,492.00
2017-09-05T05:13:49.925Z,540.00
2017-09-05T05:14:49.912Z,572.00
2017-09-05T05:15:49.899Z,604.00
2017-09-05T05:16:50.016Z,628.00
2017-09-05T05:17:49.873Z,664.00
2017-09-05T05:18:49.865Z,688.00
2017-09-05T05:19:49.848Z,720.00
2017-09-05T05:20:49.838Z,748.00
2017-09-05T05:21:49.825Z,776.00
2017-09-05T05:22:49.812Z,804.00
2017-09-05T05:23:49.800Z,832.00
2017-09-05T05:24:49.784Z,864.00
2017-09-05T05:25:49.778Z,912.00
2017-09-05T05:26:49.758Z,944.00
2017-09-05T05:27:49.749Z,972.00
2017-09-05T05:28:49.736Z,1008.00
2017-09-05T05:29:49.724Z,1048.00
2017-09-05T05:30:49.714Z,1080.00
2017-09-05T05:31:49.698Z,1108.00
2017-09-05T05:32:49.685Z,1136.00
2017-09-05T05:33:49.672Z,1168.00
2017-09-05T05:34:49.669Z,1216.00
2017-09-05T05:35:49.646Z,1232.00
2017-09-05T05:36:49.634Z,1260.00
2017-09-05T05:37:49.621Z,1304.00
2017-09-05T05:38:49.614Z,1360.00
2017-09-05T05:39:49.596Z,1404.00
2017-09-05T05:40:49.586Z,1452.00
2017-09-05T05:41:49.570Z,1512.00
2017-09-05T05:42:49.560Z,1560.00
2017-09-05T05:43:49.549Z,1604.00
2017-09-05T05:44:49.549Z,1664.00
2017-09-05T05:45:49.528Z,1712.00
2017-09-05T05:46:49.509Z,1764.00
2017-09-05T05:47:49.496Z,1788.00
2017-09-05T05:48:49.488Z,1864.00
2017-09-05T05:49:50.117Z,1932.00
2017-09-05T05:50:50.214Z,2004.00
2017-09-05T05:51:49.448Z,2044.00
2017-09-05T05:52:49.434Z,2096.00
2017-09-05T05:53:49.423Z,2144.00
2017-09-05T05:54:49.410Z,2188.00
2017-09-05T05:55:49.411Z,2244.00
2017-09-05T05:56:49.392Z,2264.00
2017-09-05T05:57:49.373Z,2292.00
2017-09-05T05:58:49.365Z,2308.00
2017-09-05T05:59:49.351Z,2328.00
2017-09-05T06:00:49.334Z,2388.00
2017-09-05T06:01:49.322Z,2400.00
2017-09-05T06:02:49.329Z,2444.00
2017-09-05T06:03:49.380Z,2500.00
2017-09-05T06:04:49.286Z,2580.00
2017-09-05T06:05:49.271Z,2932.00
2017-09-05T06:06:49.262Z,2684.00
2017-09-05T06:07:49.246Z,2780.00
2017-09-05T06:08:49.238Z,2840.00
2017-09-05T06:09:49.226Z,2892.00
2017-09-05T06:10:49.214Z,2948.00
2017-09-05T06:11:49.197Z,3032.00
2017-09-05T06:12:49.189Z,3132.00
2017-09-05T06:13:49.176Z,3332.00
2017-09-05T06:14:49.164Z,3224.00
2017-09-05T06:15:49.151Z,3220.00
2017-09-05T06:16:49.142Z,3444.00
2017-09-05T06:17:49.126Z,3848.00
2017-09-05T06:18:49.116Z,3480.00
2017-09-05T06:19:49.106Z,3444.00
2017-09-05T06:20:49.084Z,3276.00
2017-09-05T06:21:49.074Z,3276.00
2017-09-05T06:22:49.064Z,3324.00
2017-09-05T06:23:49.054Z,3420.00
2017-09-05T06:24:49.042Z,3452.00
2017-09-05T06:25:49.024Z,3484.00
2017-09-05T06:26:49.017Z,3568.00
2017-09-05T06:27:49.002Z,3680.00
2017-09-05T06:28:48.988Z,3764.00
2017-09-05T06:29:48.976Z,3848.00
2017-09-05T06:30:48.967Z,3936.00
2017-09-05T06:31:48.947Z,3972.00
2017-09-05T06:32:48.937Z,4040.00
2017-09-05T06:33:48.921Z,4084.00
2017-09-05T06:34:48.921Z,4080.00
2017-09-05T06:35:48.906Z,4200.00
2017-09-05T06:36:48.893Z,4064.00
2017-09-05T06:37:48.874Z,4048.00
2017-09-05T06:38:48.864Z,3980.00
2017-09-05T06:39:48.854Z,3828.00
2017-09-05T06:40:48.842Z,3628.00
2017-09-05T06:41:48.832Z,3724.00
2017-09-05T06:42:48.820Z,3288.00
2017-09-05T06:43:48.807Z,3240.00
2017-09-05T06:44:48.793Z,3256.00
2017-09-05T06:45:48.780Z,3336.00
2017-09-05T06:46:48.767Z,3688.00
2017-09-05T06:47:48.758Z,3544.00
2017-09-05T06:48:48.745Z,3576.00
2017-09-05T06:49:48.732Z,3664.00
2017-09-05T06:50:48.719Z,3892.00
2017-09-05T06:51:48.704Z,3824.00
2017-09-05T06:52:48.691Z,3996.00
2017-09-05T06:53:48.678Z,4748.00
2017-09-05T06:54:48.668Z,5216.00
2017-09-05T06:55:48.655Z,4516.00
2017-09-05T06:56:48.645Z,4980.00
2017-09-05T06:57:48.640Z,5184.00
2017-09-05T06:58:48.620Z,4800.00
2017-09-05T06:59:48.611Z,4860.00
2017-09-05T07:00:48.600Z,4788.00
2017-09-05T07:01:48.587Z,4720.00
2017-09-05T07:02:48.577Z,4788.00
2017-09-05T07:03:48.558Z,4616.00
2017-09-05T07:04:48.546Z,4544.00
2017-09-05T07:05:48.538Z,4412.00
2017-09-05T07:06:48.525Z,4548.00
2017-09-05T07:07:48.511Z,4936.00
2017-09-05T07:08:48.500Z,5608.00
2017-09-05T07:09:48.487Z,6224.00
2017-09-05T07:10:48.475Z,6324.00
2017-09-05T07:11:48.468Z,7012.00
2017-09-05T07:12:48.449Z,7324.00
2017-09-05T07:13:48.443Z,7164.00
2017-09-05T07:14:48.433Z,7020.00
2017-09-05T07:15:48.418Z,6876.00
2017-09-05T07:16:48.405Z,6804.00
2017-09-05T07:17:48.395Z,6468.00
2017-09-05T07:18:48.380Z,6328.00
2017-09-05T07:19:48.366Z,6320.00
2017-09-05T07:20:48.360Z,6376.00
2017-09-05T07:21:48.344Z,6532.00
2017-09-05T07:22:48.336Z,6352.00
2017-09-05T07:23:48.323Z,6156.00
2017-09-05T07:24:48.305Z,5908.00
2017-09-05T07:25:48.299Z,5784.00
2017-09-05T07:26:48.284Z,6028.00
2017-09-05T07:27:48.277Z,5468.00
2017-09-05T07:28:48.260Z,5252.00
2017-09-05T07:29:48.245Z,5176.00
2017-09-05T07:30:48.238Z,5228.00
2017-09-05T07:31:48.224Z,5124.00
2017-09-05T07:32:48.209Z,5196.00
2017-09-05T07:33:48.199Z,5456.00
2017-09-05T07:34:48.187Z,5484.00
2017-09-05T07:35:48.180Z,6496.00
2017-09-05T07:36:48.168Z,5812.00
2017-09-05T07:37:48.155Z,6228.00
2017-09-05T07:38:48.138Z,6236.00
2017-09-05T07:39:48.126Z,6332.00
2017-09-05T07:40:48.121Z,6672.00
2017-09-05T07:41:48.106Z,6848.00
2017-09-05T07:42:48.097Z,7096.00
2017-09-05T07:43:48.084Z,7068.00
2017-09-05T07:44:48.071Z,7028.00
2017-09-05T07:45:48.061Z,7260.00
2017-09-05T07:46:48.046Z,6948.00
2017-09-05T07:47:48.033Z,7144.00
2017-09-05T07:48:48.026Z,6964.00
2017-09-05T07:49:48.014Z,7048.00
2017-09-05T07:50:48.007Z,7756.00
2017-09-05T07:51:47.994Z,8112.00
2017-09-05T07:52:47.978Z,7436.00
2017-09-05T07:53:47.962Z,7532.00
2017-09-05T07:54:47.953Z,7484.00
2017-09-05T07:55:47.946Z,7760.00
2017-09-05T07:56:47.933Z,8192.00
2017-09-05T07:57:47.917Z,8492.00
2017-09-05T07:58:47.910Z,8472.00
2017-09-05T07:59:47.891Z,8548.00
2017-09-05T08:00:47.889Z,8452.00
2017-09-05T08:01:47.876Z,8336.00
2017-09-05T08:02:47.863Z,8100.00
2017-09-05T08:03:47.850Z,7532.00
2017-09-05T08:04:47.839Z,7488.00
2017-09-05T08:05:47.826Z,7312.00
2017-09-05T08:06:47.817Z,7396.00
2017-09-05T08:07:47.800Z,7428.00
2017-09-05T08:08:47.793Z,7524.00
2017-09-05T08:09:47.779Z,7724.00
2017-09-05T08:10:47.772Z,8400.00
2017-09-05T08:11:47.759Z,7644.00
2017-09-05T08:12:47.748Z,7224.00
2017-09-05T08:13:47.736Z,7016.00
2017-09-05T08:14:47.724Z,6660.00
2017-09-05T08:15:47.723Z,6668.00
2017-09-05T08:16:47.701Z,6104.00
2017-09-05T08:17:47.689Z,5716.00
2017-09-05T08:18:47.678Z,4932.00
2017-09-05T08:19:47.669Z,4820.00
2017-09-05T08:20:47.659Z,4784.00
2017-09-05T08:21:47.643Z,4704.00
2017-09-05T08:22:47.634Z,4508.00
2017-09-05T08:23:47.621Z,4584.00
2017-09-05T08:24:47.621Z,4592.00
2017-09-05T08:25:47.600Z,5072.00
2017-09-05T08:26:47.589Z,4500.00
2017-09-05T08:27:47.576Z,4252.00
2017-09-05T08:28:47.561Z,3792.00
2017-09-05T08:29:47.554Z,3680.00
2017-09-05T08:30:47.554Z,3692.00
2017-09-05T08:31:47.531Z,3828.00
2017-09-05T08:32:47.519Z,4024.00
2017-09-05T08:33:47.506Z,4448.00
2017-09-05T08:34:47.500Z,4432.00
2017-09-05T08:35:47.484Z,4404.00
2017-09-05T08:36:47.477Z,4396.00
2017-09-05T08:37:47.458Z,4460.00
2017-09-05T08:38:47.448Z,4456.00
2017-09-05T08:39:47.440Z,4468.00
2017-09-05T08:40:47.430Z,4460.00
2017-09-05T08:41:47.422Z,4372.00
2017-09-05T08:42:47.406Z,4168.00
2017-09-05T08:43:47.391Z,4360.00
2017-09-05T08:44:47.382Z,4328.00
2017-09-05T08:45:47.372Z,4404.00
2017-09-05T08:46:47.359Z,4480.00
2017-09-05T08:47:47.347Z,4464.00
2017-09-05T08:48:47.337Z,4400.00
2017-09-05T08:49:47.327Z,4420.00
2017-09-05T08:50:47.311Z,4424.00
2017-09-05T08:51:47.302Z,4472.00
2017-09-05T08:52:47.289Z,4376.00
2017-09-05T08:53:47.283Z,4464.00
2017-09-05T08:54:47.272Z,4492.00
2017-09-05T08:55:47.260Z,4472.00
2017-09-05T08:56:47.247Z,4480.00
2017-09-05T08:57:47.234Z,4552.00
2017-09-05T08:58:47.227Z,4560.00
2017-09-05T08:59:47.300Z,4536.00
2017-09-05T09:00:47.208Z,4560.00
2017-09-05T09:01:47.184Z,4580.00
2017-09-05T09:02:47.177Z,4672.00
2017-09-05T09:03:47.167Z,4644.00
2017-09-05T09:04:47.158Z,4696.00
2017-09-05T09:05:47.145Z,4688.00
2017-09-05T09:06:47.133Z,4644.00
2017-09-05T09:07:47.120Z,4696.00
2017-09-05T09:08:47.110Z,4776.00
2017-09-05T09:09:47.105Z,4852.00
2017-09-05T09:10:47.089Z,4808.00
2017-09-05T09:11:47.075Z,4876.00
2017-09-05T09:12:47.063Z,4988.00
2017-09-05T09:13:47.050Z,4952.00
2017-09-05T09:14:47.039Z,5028.00
2017-09-05T09:15:47.027Z,5060.00
2017-09-05T09:17:08.780Z,5068.00
2017-09-05T09:17:47.008Z,5136.00
2017-09-05T09:18:46.999Z,5284.00
2017-09-05T09:19:46.987Z,5280.00
2017-09-05T09:20:46.973Z,5264.00
2017-09-05T09:21:46.961Z,5272.00
2017-09-05T09:22:46.948Z,5204.00
2017-09-05T09:23:46.938Z,4988.00
2017-09-05T09:24:46.930Z,4724.00
2017-09-05T09:25:46.916Z,4756.00
2017-09-05T09:26:46.909Z,4588.00
2017-09-05T09:27:46.897Z,4956.00
2017-09-05T09:28:46.883Z,5096.00
2017-09-05T09:29:46.868Z,5092.00
2017-09-05T09:30:46.867Z,5156.00
2017-09-05T09:31:46.852Z,5260.00
2017-09-05T09:32:46.839Z,5240.00
2017-09-05T09:33:46.826Z,5224.00
2017-09-05T09:34:46.814Z,5224.00
2017-09-05T09:35:46.807Z,5256.00
2017-09-05T09:36:46.787Z,5332.00
2017-09-05T09:37:46.781Z,5540.00
2017-09-05T09:38:46.770Z,5728.00
2017-09-05T09:39:46.766Z,5848.00
2017-09-05T09:40:46.748Z,5876.00
2017-09-05T09:41:46.735Z,6396.00
2017-09-05T09:42:46.726Z,7316.00
2017-09-05T09:43:46.710Z,7444.00
2017-09-05T09:44:46.709Z,7248.00
2017-09-05T09:45:46.691Z,7516.00
2017-09-05T09:46:46.681Z,7552.00
2017-09-05T09:47:46.666Z,7684.00
2017-09-05T09:48:46.663Z,7388.00
2017-09-05T09:49:46.649Z,7876.00
2017-09-05T09:50:46.639Z,7860.00
2017-09-05T09:51:46.624Z,8236.00
2017-09-05T09:52:46.613Z,8860.00
2017-09-05T09:53:46.603Z,8132.00
2017-09-05T09:54:46.592Z,8076.00
2017-09-05T09:55:46.583Z,8256.00
2017-09-05T09:56:46.570Z,8364.00
2017-09-05T09:57:46.564Z,9104.00
2017-09-05T09:58:46.551Z,8448.00
2017-09-05T09:59:46.542Z,8384.00
2017-09-05T10:00:46.528Z,9284.00
2017-09-05T10:01:46.519Z,8892.00
2017-09-05T10:02:46.506Z,8908.00
2017-09-05T10:03:46.494Z,9664.00
2017-09-05T10:04:46.481Z,10348.00
2017-09-05T10:05:46.471Z,10576.00
2017-09-05T10:06:46.464Z,10292.00
2017-09-05T10:07:46.451Z,10128.00
2017-09-05T10:08:46.436Z,10808.00
2017-09-05T10:09:46.423Z,11112.00
2017-09-05T10:10:46.418Z,11308.00
2017-09-05T10:11:46.411Z,11564.00
2017-09-05T10:12:46.397Z,13168.00
2017-09-05T10:13:46.383Z,12616.00
2017-09-05T10:14:46.380Z,13228.00
2017-09-05T10:15:46.364Z,13448.00
2017-09-05T10:16:46.355Z,15968.00
2017-09-05T10:17:46.345Z,16000.00
2017-09-05T10:18:46.339Z,15872.00
2017-09-05T10:19:46.350Z,19584.00
2017-09-05T10:20:46.314Z,22592.00
2017-09-05T10:21:46.304Z,23072.00
2017-09-05T10:22:46.288Z,23104.00
2017-09-05T10:23:46.278Z,22400.00
2017-09-05T10:24:46.271Z,10144.00
2017-09-05T10:25:46.259Z,8104.00
2017-09-05T10:26:46.249Z,9072.00
2017-09-05T10:27:46.240Z,17664.00
2017-09-05T10:28:46.230Z,16672.00
2017-09-05T10:29:46.217Z,16192.00
2017-09-05T10:30:46.223Z,16768.00
2017-09-05T10:31:46.200Z,19104.00
2017-09-05T10:32:46.185Z,19072.00
2017-09-05T10:33:46.175Z,20160.00
2017-09-05T10:34:46.165Z,22752.00
2017-09-05T10:35:46.159Z,23008.00
2017-09-05T10:36:46.146Z,27680.00
2017-09-05T10:37:46.133Z,29760.00
2017-09-05T10:38:46.126Z,26912.00
2017-09-05T10:39:46.117Z,27392.00
2017-09-05T10:40:46.098Z,26880.00
2017-09-05T10:41:46.098Z,28192.00
2017-09-05T10:42:46.088Z,26688.00
2017-09-05T10:43:46.081Z,25536.00
2017-09-05T10:44:46.068Z,25024.00
2017-09-05T10:45:46.059Z,24960.00
2017-09-05T10:46:46.046Z,25344.00
2017-09-05T10:47:46.041Z,26368.00
2017-09-05T10:48:46.033Z,28576.00
2017-09-05T10:49:46.011Z,33568.00
2017-09-05T10:50:46.011Z,38784.00
2017-09-05T10:51:46.004Z,39008.00
2017-09-05T10:52:45.989Z,32672.00
2017-09-05T10:53:45.979Z,28576.00
2017-09-05T10:54:45.966Z,26880.00
2017-09-05T10:55:45.962Z,25632.00
2017-09-05T10:56:45.951Z,25440.00
2017-09-05T10:57:45.938Z,24704.00
2017-09-05T10:58:45.931Z,24224.00
2017-09-05T10:59:45.918Z,23232.00
2017-09-05T11:00:45.908Z,23232.00
2017-09-05T11:01:45.899Z,23104.00
2017-09-05T11:02:45.893Z,20992.00
2017-09-05T11:03:45.880Z,22848.00
2017-09-05T11:04:45.874Z,23456.00
2017-09-05T11:05:45.861Z,24128.00
2017-09-05T11:06:45.854Z,29472.00
2017-09-05T11:07:45.841Z,38688.00
2017-09-05T11:08:45.835Z,35008.00
2017-09-05T11:09:45.822Z,32032.00
2017-09-05T11:10:45.816Z,32992.00
2017-09-05T11:11:45.810Z,34560.00
2017-09-05T11:12:45.796Z,27744.00
2017-09-05T11:13:45.780Z,27616.00
2017-09-05T11:14:45.775Z,26880.00
2017-09-05T11:15:45.767Z,26528.00
2017-09-05T11:16:45.756Z,15776.00
2017-09-05T11:17:45.746Z,20736.00
2017-09-05T11:18:45.739Z,16832.00
2017-09-05T11:19:45.729Z,15840.00
2017-09-05T11:20:45.722Z,12920.00
2017-09-05T11:21:45.713Z,12484.00
2017-09-05T11:22:45.710Z,13136.00
2017-09-05T11:23:45.691Z,13040.00
2017-09-05T11:24:45.678Z,13628.00
2017-09-05T11:25:45.668Z,16032.00
2017-09-05T11:26:45.670Z,14632.00
2017-09-05T11:27:45.662Z,14120.00
2017-09-05T11:28:45.652Z,13092.00
2017-09-05T11:29:45.640Z,13524.00
2017-09-05T11:30:45.633Z,48160.00
2017-09-05T11:31:45.620Z,13548.00
2017-09-05T11:32:45.617Z,14160.00
2017-09-05T11:33:45.600Z,14032.00
2017-09-05T11:34:45.594Z,14144.00
2017-09-05T11:35:45.582Z,13716.00
2017-09-05T11:36:45.575Z,14336.00
2017-09-05T11:37:45.568Z,13956.00
2017-09-05T11:38:45.553Z,14740.00
2017-09-05T11:39:45.548Z,15584.00
2017-09-05T11:40:45.545Z,15968.00
2017-09-05T11:41:45.533Z,16800.00
2017-09-05T11:42:45.520Z,18016.00
2017-09-05T11:43:45.518Z,15904.00
2017-09-05T11:44:45.511Z,18560.00
2017-09-05T11:45:45.498Z,30016.00
2017-09-05T11:46:45.491Z,21152.00
2017-09-05T11:47:45.482Z,21920.00
2017-09-05T11:48:45.476Z,35584.00
2017-09-05T11:49:45.463Z,16192.00
2017-09-05T11:50:45.450Z,30016.00
2017-09-05T11:51:45.445Z,30336.00
2017-09-05T11:52:45.437Z,31424.00
2017-09-05T11:53:45.433Z,21024.00
2017-09-05T11:54:45.428Z,24608.00
2017-09-05T11:55:45.411Z,38176.00
2017-09-05T11:56:45.404Z,21280.00
2017-09-05T11:57:45.393Z,48704.00
2017-09-05T11:58:45.388Z,51744.00
2017-09-05T11:59:45.375Z,55296.00
2017-09-05T12:00:45.372Z,61376.00
2017-09-05T12:01:45.364Z,41568.00
2017-09-05T12:02:45.363Z,53184.00
2017-09-05T12:03:45.342Z,56928.00
2017-09-05T12:04:45.336Z,13252.00
2017-09-05T12:05:45.327Z,30976.00
2017-09-05T12:06:45.322Z,62304.00
2017-09-05T12:07:45.308Z,45248.00
2017-09-05T12:08:45.304Z,70336.00
2017-09-05T12:09:45.291Z,80320.00
2017-09-05T12:10:45.292Z,73920.00
2017-09-05T12:11:45.278Z,74336.00
2017-09-05T12:12:45.267Z,78720.00
2017-09-05T12:13:45.258Z,76768.00
2017-09-05T12:14:45.253Z,75200.00
2017-09-05T12:15:45.244Z,76992.00
2017-09-05T12:16:45.240Z,75392.00
2017-09-05T12:17:45.239Z,72416.00
2017-09-05T12:18:45.221Z,63872.00
2017-09-05T12:19:45.212Z,82400.00
2017-09-05T12:20:45.209Z,67296.00
2017-09-05T12:21:45.196Z,27808.00
2017-09-05T12:22:45.190Z,27776.00
2017-09-05T12:23:45.177Z,28864.00
2017-09-05T12:24:45.173Z,26528.00
2017-09-05T12:25:45.163Z,36480.00
2017-09-05T12:26:45.157Z,37984.00
2017-09-05T12:27:45.151Z,32384.00
2017-09-05T12:28:45.145Z,31968.00